»·PEaware :: N2442P KBAM-KENV

N2442P :: KBAM-KENV

FLIGHT INFORMATION

Flight Status: Arrived
Operator: Privately registered:
United States
More flights under this callsign
Pilot: Ken Q. (14290)
Aircraft: MOONEY M-20K/M ENCORE BRAVO
(M20T)
More flights by this aircraft type
Origin: KBAM Battle Mountain
United States
Destination: KENV Wendover
United States
More flights between these airports :: More routes between these airports
Route: KBAM BQU UHEPI KENV
File this flight plan on PilotEdge
Remarks: EAST TO OSHKOSH!
Altitude:
(Current/Filed)
13,500ft
Speed:
(Current/Filed)
175kts
Departed: 09-Jul-20 01:08 PM
Arrived: 09-Jul-20 02:01 PM
Distance/Time
Traveled:
129nm/0:53
Distance/Time
To Go:
Arrived

Flight Plot

Page will automatically refresh every two minutes.

Flight plan parsing failed; only flown route is shown


Map Options




Map Legend


Flown Route
Filed Route
Departure Airport
Arrival Airport
Navaid (VOR, NDB)
Fix

Horizontal Profiles

Position Reports

Time Latitude Longitude Heading Altitude Ground
Speed
09-Jul-20 12:24 40.606478 -116.873769 352 4535ft 0kts
09-Jul-20 12:25 40.606478 -116.873769 352 4535ft 0kts
09-Jul-20 12:26 40.606478 -116.873769 352 4535ft 0kts
09-Jul-20 12:27 40.606478 -116.873769 352 4535ft 0kts
09-Jul-20 12:28 40.606478 -116.873769 352 4535ft 0kts
09-Jul-20 12:29 40.606478 -116.873769 352 4535ft 0kts
09-Jul-20 12:30 40.606478 -116.873769 352 4535ft 0kts
09-Jul-20 12:31 40.606478 -116.873769 352 4535ft 0kts
09-Jul-20 12:32 40.606478 -116.873769 352 4535ft 0kts
09-Jul-20 12:33 40.606478 -116.873769 352 4535ft 0kts
09-Jul-20 12:34 40.606478 -116.873769 352 4535ft 0kts
09-Jul-20 12:35 40.606478 -116.873769 352 4535ft 0kts
09-Jul-20 12:35 40.606478 -116.873769 352 4535ft 0kts
09-Jul-20 12:37 40.606478 -116.873769 352 4535ft 0kts
09-Jul-20 12:38 40.606478 -116.873769 352 4535ft 0kts
09-Jul-20 12:38 40.606478 -116.873769 352 4535ft 0kts
09-Jul-20 12:40 40.606478 -116.873769 352 4535ft 0kts
09-Jul-20 12:40 40.606478 -116.873769 352 4535ft 0kts
09-Jul-20 12:41 40.606478 -116.873769 352 4535ft 0kts
09-Jul-20 12:42 40.606478 -116.873769 352 4535ft 0kts
09-Jul-20 12:43 40.606478 -116.873769 352 4535ft 0kts
09-Jul-20 12:49 40.606478 -116.873769 352 4535ft 0kts
09-Jul-20 12:50 40.606478 -116.873769 352 4535ft 0kts
09-Jul-20 12:51 40.606478 -116.873769 352 4535ft 0kts
09-Jul-20 12:52 40.606478 -116.873769 352 4535ft 0kts
09-Jul-20 12:53 40.606478 -116.873769 352 4535ft 0kts
09-Jul-20 12:54 40.606478 -116.873769 352 4535ft 0kts
09-Jul-20 12:55 40.606478 -116.873769 352 4535ft 0kts
09-Jul-20 12:56 40.606478 -116.873769 352 4535ft 0kts
09-Jul-20 12:57 40.606478 -116.873769 352 4535ft 0kts
09-Jul-20 12:58 40.606478 -116.873769 352 4535ft 0kts
09-Jul-20 12:59 40.606478 -116.873770 352 4535ft 0kts
09-Jul-20 13:00 40.606478 -116.873770 352 4535ft 0kts
09-Jul-20 13:01 40.606478 -116.873770 352 4535ft 0kts
09-Jul-20 13:02 40.606065 -116.873172 85 4535ft 9kts
09-Jul-20 13:03 40.606479 -116.868720 84 4535ft 13kts
09-Jul-20 13:04 40.606550 -116.867173 271 4535ft 0kts
09-Jul-20 13:05 40.606591 -116.866767 97 4535ft 8kts
09-Jul-20 13:06 40.605783 -116.866895 232 4535ft 29kts
09-Jul-20 13:07 40.591386 -116.886946 227 4810ft 92kts
09-Jul-20 13:08 40.568848 -116.889400 78 5346ft 139kts
09-Jul-20 13:09 40.579375 -116.840992 80 6195ft 137kts
09-Jul-20 13:10 40.583975 -116.791129 88 7013ft 137kts
09-Jul-20 13:11 40.585422 -116.740396 88 7824ft 141kts
09-Jul-20 13:12 40.591487 -116.689052 62 8571ft 146kts
09-Jul-20 13:13 40.611187 -116.643744 60 9261ft 141kts
09-Jul-20 13:14 40.631479 -116.598006 60 9876ft 148kts
09-Jul-20 13:15 40.647433 -116.546607 72 10446ft 157kts
09-Jul-20 13:16 40.660769 -116.489765 80 10957ft 165kts
09-Jul-20 13:17 40.670276 -116.429602 80 11464ft 170kts
09-Jul-20 13:18 40.680183 -116.368052 81 11957ft 171kts
09-Jul-20 13:19 40.687537 -116.306176 85 12457ft 172kts
09-Jul-20 13:20 40.694552 -116.243466 84 12960ft 174kts
09-Jul-20 13:21 40.701577 -116.179605 84 13456ft 177kts
09-Jul-20 13:22 40.708845 -116.111476 84 13529ft 198kts
09-Jul-20 13:23 40.716381 -116.038421 84 13527ft 203kts
09-Jul-20 13:24 40.723871 -115.964446 84 13527ft 204kts
09-Jul-20 13:25 40.731457 -115.890630 84 13526ft 202kts
09-Jul-20 13:26 40.739056 -115.816981 84 13529ft 203kts
09-Jul-20 13:27 40.743839 -115.742839 87 13528ft 202kts
09-Jul-20 13:28 40.746648 -115.668849 90 13527ft 200kts
09-Jul-20 13:29 40.748715 -115.595250 90 13530ft 202kts
09-Jul-20 13:30 40.752166 -115.520997 88 13529ft 204kts
09-Jul-20 13:31 40.755758 -115.446592 90 13525ft 201kts
09-Jul-20 13:32 40.756617 -115.373157 92 13526ft 200kts
09-Jul-20 13:33 40.756861 -115.299553 92 13523ft 199kts
09-Jul-20 13:34 40.757133 -115.226397 92 13236ft 201kts
09-Jul-20 13:35 40.757244 -115.151967 92 12742ft 204kts
09-Jul-20 13:36 40.757285 -115.077013 92 12248ft 204kts
09-Jul-20 13:37 40.757251 -115.002268 92 11751ft 203kts
09-Jul-20 13:38 40.756953 -114.928999 92 11509ft 191kts
09-Jul-20 13:39 40.756716 -114.859790 92 11490ft 191kts
09-Jul-20 13:40 40.756513 -114.788938 92 11482ft 195kts
09-Jul-20 13:41 40.756190 -114.715138 92 11130ft 209kts
09-Jul-20 13:42 40.755585 -114.639746 92 11015ft 200kts
09-Jul-20 13:43 40.756567 -114.567395 89 11013ft 197kts
09-Jul-20 13:44 40.760415 -114.495685 88 11010ft 195kts
09-Jul-20 13:45 40.763993 -114.423409 88 10723ft 206kts
09-Jul-20 13:46 40.766900 -114.351050 88 10244ft 190kts
09-Jul-20 13:47 40.768189 -114.283528 97 9711ft 179kts
09-Jul-20 13:48 40.760256 -114.221753 100 9168ft 159kts
09-Jul-20 13:49 40.741756 -114.175257 135 8623ft 134kts
09-Jul-20 13:50 40.716673 -114.142999 131 8072ft 119kts
09-Jul-20 13:51 40.699482 -114.105384 127 7559ft 121kts
09-Jul-20 13:52 40.672589 -114.078416 143 7036ft 120kts
09-Jul-20 13:53 40.657321 -114.043074 121 6481ft 106kts
09-Jul-20 13:54 40.652719 -114.005980 96 5955ft 105kts
09-Jul-20 13:55 40.649500 -113.964403 85 5462ft 121kts
09-Jul-20 13:56 40.679005 -113.953558 20 5193ft 110kts
09-Jul-20 13:57 40.706079 -113.945464 357 5187ft 95kts
09-Jul-20 13:58 40.717049 -113.975267 280 5014ft 98kts
09-Jul-20 13:59 40.718838 -114.009700 270 4407ft 92kts
09-Jul-20 14:00 40.718947 -114.028146 271 4240ft 5kts
09-Jul-20 14:01 40.718989 -114.031385 269 4240ft 10kts
09-Jul-20 14:02 40.719139 -114.033409 295 4240ft 12kts
09-Jul-20 14:03 40.722423 -114.038024 315 4240ft 18kts
09-Jul-20 14:04 40.725773 -114.042361 332 4240ft 15kts
09-Jul-20 14:05 40.726645 -114.038486 88 4240ft 13kts
09-Jul-20 14:06 40.727477 -114.035392 358 4240ft 7kts
09-Jul-20 14:07 40.727576 -114.035395 358 4240ft 0kts
09-Jul-20 14:08 40.727576 -114.035395 358 4240ft 0kts
09-Jul-20 14:09 40.727576 -114.035395 358 4240ft 0kts

Navigation Log

Ident Type
Flight plan parsing failed, navigation log unavailable